createdAt,value
2019-01-12T00:03:22.362Z,101259.05
2019-01-12T00:05:48.120Z,101265.80
2019-01-12T00:08:13.891Z,101260.45
2019-01-12T00:10:39.654Z,101254.46
2019-01-12T00:13:05.435Z,101259.36
2019-01-12T00:15:31.194Z,101256.23
2019-01-12T00:17:56.980Z,101254.55
2019-01-12T00:20:22.754Z,101258.09
2019-01-12T00:22:48.533Z,101260.25
2019-01-12T00:25:14.298Z,101248.91
2019-01-12T00:27:40.068Z,101252.92
2019-01-12T00:30:25.760Z,101252.22
2019-01-12T00:32:51.490Z,101250.08
2019-01-12T00:35:17.276Z,101252.98
2019-01-12T00:37:43.023Z,101245.65
2019-01-12T00:40:08.797Z,101246.98
2019-01-12T00:42:34.571Z,101246.83
2019-01-12T00:45:00.344Z,101243.64
2019-01-12T00:47:26.111Z,101240.48
2019-01-12T00:49:51.903Z,101247.88
2019-01-12T00:52:17.910Z,101244.05
2019-01-12T00:54:43.688Z,101247.06
2019-01-12T00:57:09.465Z,101250.22
2019-01-12T00:59:35.224Z,101247.77
2019-01-12T01:02:00.986Z,101245.09
2019-01-12T01:04:26.755Z,101245.09
2019-01-12T01:06:52.530Z,101240.91
2019-01-12T01:09:18.295Z,101239.58
2019-01-12T01:11:44.078Z,101233.39
2019-01-12T01:14:09.835Z,101230.07
2019-01-12T01:16:35.608Z,101237.30
2019-01-12T01:19:01.374Z,101234.11
2019-01-12T01:21:27.179Z,101239.00
2019-01-12T01:23:52.937Z,101242.38
2019-01-12T01:26:18.716Z,101238.52
2019-01-12T01:29:04.366Z,101239.00
2019-01-12T01:31:30.143Z,101239.00
2019-01-12T01:33:55.923Z,101239.00
2019-01-12T01:36:21.684Z,101235.20
2019-01-12T01:38:47.439Z,101242.25
2019-01-12T01:44:07.097Z,101247.33
2019-01-12T01:46:32.866Z,101247.03
2019-01-12T01:48:58.622Z,101242.02
2019-01-12T01:51:24.411Z,101244.35
2019-01-12T01:53:50.178Z,101240.17
2019-01-12T01:56:15.962Z,101243.66
2019-01-12T01:58:41.719Z,101230.27
2019-01-12T02:01:07.493Z,101226.89
2019-01-12T02:03:33.273Z,101234.47
2019-01-12T02:05:59.055Z,101222.63
2019-01-12T02:08:24.805Z,101224.80
2019-01-12T02:10:50.594Z,101214.27
2019-01-12T02:13:16.356Z,101213.83
2019-01-12T02:15:42.141Z,101201.95
2019-01-12T02:18:07.897Z,101213.50
2019-01-12T02:20:33.666Z,101207.27
2019-01-12T02:22:59.444Z,101205.23
2019-01-12T02:25:25.215Z,101199.06
2019-01-12T02:27:50.992Z,101183.63
2019-01-12T02:30:58.453Z,101184.11
2019-01-12T02:33:24.235Z,101181.95
2019-01-12T02:35:49.979Z,101178.11
2019-01-12T02:38:15.754Z,101180.48
2019-01-12T02:40:41.511Z,101175.31
2019-01-12T02:43:07.293Z,101166.80
2019-01-12T02:45:33.054Z,101165.16
2019-01-12T02:47:58.835Z,101164.12
2019-01-12T02:50:24.600Z,101164.17
2019-01-12T02:52:50.386Z,101154.10
2019-01-12T02:55:16.138Z,101154.45
2019-01-12T02:57:41.914Z,101150.42
2019-01-12T03:00:27.552Z,101142.05
2019-01-12T03:02:53.327Z,101138.37
2019-01-12T03:05:19.080Z,101142.39
2019-01-12T03:07:44.849Z,101139.72
2019-01-12T03:10:52.282Z,101141.75
2019-01-12T03:13:18.061Z,101140.06
2019-01-12T03:15:43.814Z,101137.08
2019-01-12T03:18:09.582Z,101136.08
2019-01-12T03:20:35.363Z,101127.05
2019-01-12T03:23:01.142Z,101130.08
2019-01-12T03:25:26.905Z,101124.03
2019-01-12T03:27:52.698Z,101118.67
2019-01-12T03:30:18.479Z,101118.50
2019-01-12T03:32:44.222Z,101114.62
2019-01-12T03:35:10.098Z,101123.51
2019-01-12T03:37:35.923Z,101120.80
2019-01-12T03:40:43.378Z,101112.59
2019-01-12T03:43:09.126Z,101116.47
2019-01-12T03:45:34.881Z,101115.27
2019-01-12T03:48:00.661Z,101114.78
2019-01-12T03:50:26.425Z,101120.02
2019-01-12T03:52:52.208Z,101113.14
2019-01-12T03:55:25.210Z,101106.48
2019-01-12T03:57:45.756Z,101105.84
2019-01-12T04:00:31.421Z,101100.03
2019-01-12T04:02:57.282Z,101099.86
2019-01-12T04:05:23.058Z,101097.70
2019-01-12T04:07:48.822Z,101095.02
2019-01-12T04:10:14.715Z,101086.84
2019-01-12T04:12:40.464Z,101083.12
2019-01-12T04:15:26.119Z,101089.00
2019-01-12T04:17:51.873Z,101080.28
2019-01-12T04:20:17.662Z,101076.60
2019-01-12T04:22:43.529Z,101077.12
2019-01-12T04:25:09.408Z,101078.97
2019-01-12T04:27:35.163Z,101070.62
2019-01-12T04:30:00.944Z,101065.88
2019-01-12T04:32:26.719Z,101065.37
2019-01-12T04:34:52.493Z,101065.88
2019-01-12T04:37:18.260Z,101063.55
2019-01-12T04:39:44.033Z,101057.16
2019-01-12T04:42:09.784Z,101065.82
2019-01-12T04:44:35.570Z,101050.84
2019-01-12T04:47:01.347Z,101049.64
2019-01-12T04:49:27.131Z,101046.63
2019-01-12T04:51:52.921Z,101041.98
2019-01-12T04:54:18.659Z,101047.64
2019-01-12T04:56:44.432Z,101050.39
2019-01-12T04:59:10.206Z,101051.73
2019-01-12T05:01:36.013Z,101051.05
2019-01-12T05:04:01.791Z,100910.11
2019-01-12T05:06:27.557Z,101045.66
2019-01-12T05:08:53.329Z,101042.98
2019-01-12T05:12:01.297Z,101051.19
2019-01-12T05:14:27.020Z,101047.99
2019-01-12T05:16:52.812Z,101048.34
2019-01-12T05:19:18.619Z,101040.81
2019-01-12T05:21:44.387Z,101043.67
2019-01-12T05:24:10.160Z,101035.94
2019-01-12T05:26:35.934Z,101031.58
2019-01-12T05:29:01.719Z,101033.09
2019-01-12T05:31:27.483Z,101032.92
2019-01-12T05:33:53.242Z,101029.08
2019-01-12T05:36:19.006Z,101034.92
2019-01-12T05:38:44.772Z,101023.94
2019-01-12T05:41:10.577Z,101026.42
2019-01-12T05:43:36.335Z,101018.94
2019-01-12T05:46:02.089Z,101017.91
2019-01-12T05:48:27.857Z,101015.20
2019-01-12T05:50:53.622Z,101015.37
2019-01-12T05:53:19.410Z,101007.84
2019-01-12T05:55:45.177Z,101007.33
2019-01-12T05:58:10.955Z,100994.42
2019-01-12T06:00:36.718Z,101005.31
2019-01-12T06:03:02.689Z,100998.41
2019-01-12T06:05:28.439Z,100995.42
2019-01-12T06:07:54.207Z,100989.72
2019-01-12T06:10:19.960Z,100989.89
2019-01-12T06:12:45.774Z,100990.58
2019-01-12T06:15:53.211Z,100990.06
2019-01-12T06:18:18.989Z,100986.22
2019-01-12T06:20:44.779Z,100980.34
2019-01-12T06:23:10.564Z,100975.84
2019-01-12T06:25:36.349Z,100973.14
2019-01-12T06:28:02.209Z,100968.98
2019-01-12T06:30:27.995Z,100974.30
2019-01-12T06:32:53.744Z,100967.23
2019-01-12T06:35:19.516Z,100969.60
2019-01-12T06:37:45.384Z,100962.25
2019-01-12T06:40:52.855Z,100962.94
2019-01-12T06:43:18.611Z,100958.23
2019-01-12T06:45:44.405Z,100952.05
2019-01-12T06:48:10.181Z,100946.87
2019-01-12T06:50:35.962Z,100950.54
2019-01-12T06:53:01.741Z,100943.36
2019-01-12T06:55:47.399Z,100939.14
2019-01-12T06:58:13.158Z,100939.14
2019-01-12T07:00:38.933Z,100943.84
2019-01-12T07:03:04.708Z,100940.48
2019-01-12T07:05:30.492Z,100942.82
2019-01-12T07:07:56.249Z,100940.28
2019-01-12T07:10:22.011Z,100933.08
2019-01-12T07:12:47.781Z,100938.61
2019-01-12T07:15:55.244Z,100927.72
2019-01-12T07:18:21.003Z,100935.10
2019-01-12T07:23:40.900Z,100928.41
2019-01-12T07:26:06.666Z,100927.06
2019-01-12T07:28:32.422Z,100926.41
2019-01-12T07:30:58.203Z,100919.69
2019-01-12T07:33:23.975Z,100925.73
2019-01-12T07:35:49.858Z,100923.73
2019-01-12T07:38:15.613Z,100919.55
2019-01-12T07:40:41.368Z,100918.37
2019-01-12T07:43:07.156Z,100916.70
2019-01-12T07:45:32.922Z,100912.84
2019-01-12T07:47:58.690Z,100918.41
2019-01-12T07:50:24.584Z,100900.45
2019-01-12T07:52:50.356Z,100900.88
2019-01-12T07:55:16.127Z,100894.25
2019-01-12T07:57:41.990Z,100896.46
2019-01-12T08:00:49.467Z,100888.75
2019-01-12T08:03:15.231Z,100893.72
2019-01-12T08:05:41.006Z,100890.30
2019-01-12T08:08:06.775Z,100886.05
2019-01-12T08:10:32.550Z,100881.02
2019-01-12T08:12:58.309Z,100876.67
2019-01-12T08:15:24.067Z,100866.80
2019-01-12T08:17:49.838Z,100861.93
2019-01-12T08:20:15.619Z,100870.91
2019-01-12T08:22:41.389Z,100866.53
2019-01-12T08:25:48.842Z,100857.81
2019-01-12T08:28:14.614Z,100848.10
2019-01-12T08:30:40.373Z,100843.24
2019-01-12T08:33:06.159Z,100835.70
2019-01-12T08:35:31.913Z,100837.70
2019-01-12T08:37:57.682Z,100841.69
2019-01-12T08:40:23.440Z,100834.68
2019-01-12T08:42:49.319Z,100839.35
2019-01-12T08:45:15.094Z,100828.84
2019-01-12T08:47:40.864Z,100811.23
2019-01-12T08:50:48.311Z,100805.54
2019-01-12T08:53:14.065Z,100792.38
2019-01-12T08:55:39.853Z,100800.21
2019-01-12T08:58:05.621Z,100791.51
2019-01-12T09:00:31.374Z,100790.50
2019-01-12T09:02:57.160Z,100779.98
2019-01-12T09:05:22.943Z,100778.12
2019-01-12T09:07:48.695Z,100770.45
2019-01-12T09:10:56.132Z,100771.46
2019-01-12T09:13:21.911Z,100769.45
2019-01-12T09:15:47.678Z,100757.56
2019-01-12T09:18:13.444Z,100759.75
2019-01-12T09:20:39.238Z,100759.58
2019-01-12T09:23:05.002Z,100754.55
2019-01-12T09:25:30.804Z,100752.19
2019-01-12T09:27:56.543Z,100746.02
2019-01-12T09:30:22.319Z,100738.30
2019-01-12T09:32:48.279Z,100736.96
2019-01-12T09:35:55.752Z,100726.57
2019-01-12T09:38:21.506Z,100736.29
2019-01-12T09:40:47.270Z,100723.55
2019-01-12T09:43:13.026Z,100710.00
2019-01-12T09:45:38.807Z,100706.64
2019-01-12T09:48:04.576Z,100693.43
2019-01-12T09:50:30.347Z,100691.75
2019-01-12T09:52:56.097Z,100687.06
2019-01-12T09:55:21.883Z,100676.86
2019-01-12T09:57:47.642Z,100677.02
2019-01-12T10:00:55.097Z,100668.34
2019-01-12T10:03:20.866Z,100660.63
2019-01-12T10:05:46.633Z,100648.73
2019-01-12T10:08:12.387Z,100644.90
2019-01-12T10:10:38.170Z,100642.73
2019-01-12T10:13:03.925Z,100636.67
2019-01-12T10:15:29.792Z,100630.01
2019-01-12T10:17:55.577Z,100618.78
2019-01-12T10:20:21.354Z,100616.77
2019-01-12T10:22:47.111Z,100609.56
2019-01-12T10:25:54.609Z,100603.91
2019-01-12T10:28:20.313Z,100604.72
2019-01-12T10:30:46.085Z,100597.02
2019-01-12T10:33:12.052Z,100593.36
2019-01-12T10:35:37.832Z,100591.33
2019-01-12T10:38:03.687Z,100572.77
2019-01-12T10:40:29.556Z,100584.15
2019-01-12T10:42:55.324Z,100570.43
2019-01-12T10:45:21.284Z,100565.56
2019-01-12T10:47:47.157Z,100553.84
2019-01-12T10:50:54.641Z,100551.50
2019-01-12T10:53:20.364Z,100540.12
2019-01-12T10:55:46.144Z,100535.28
2019-01-12T10:58:12.002Z,100531.91
2019-01-12T11:00:37.763Z,100524.55
2019-01-12T11:03:03.536Z,100512.16
2019-01-12T11:05:29.311Z,100499.29
2019-01-12T11:07:55.103Z,100494.60
2019-01-12T11:10:20.959Z,100484.37
2019-01-12T11:12:46.851Z,100483.22
2019-01-12T11:15:32.495Z,100481.03
2019-01-12T11:17:58.258Z,100471.51
2019-01-12T11:20:24.032Z,100470.17
2019-01-12T11:22:49.794Z,100452.77
2019-01-12T11:25:42.600Z,100450.42
2019-01-12T11:28:03.357Z,100445.73
2019-01-12T11:30:29.115Z,100446.73
2019-01-12T11:32:54.891Z,100432.16
2019-01-12T11:35:21.137Z,100421.30
2019-01-12T11:37:46.875Z,100416.62
2019-01-12T11:40:32.530Z,100409.44
2019-01-12T11:42:58.468Z,100405.23
2019-01-12T11:45:24.218Z,100387.49
2019-01-12T11:47:50.000Z,100381.46
2019-01-12T11:50:15.758Z,100372.23
2019-01-12T11:53:23.301Z,100365.53
2019-01-12T11:55:49.032Z,100358.65
2019-01-12T11:58:14.800Z,100358.65
2019-01-12T12:00:40.562Z,100349.80
2019-01-12T12:03:06.323Z,100336.22
2019-01-12T12:05:32.149Z,100333.68
2019-01-12T12:07:57.917Z,100333.68
2019-01-12T12:10:23.789Z,100334.33
2019-01-12T12:12:49.537Z,100326.29
2019-01-12T12:18:29.363Z,100316.52
2019-01-12T12:20:55.149Z,100295.28
2019-01-12T12:23:20.997Z,100286.89
2019-01-12T12:25:46.766Z,100279.13
2019-01-12T12:28:12.521Z,100280.95
2019-01-12T12:30:38.293Z,100281.44
2019-01-12T12:33:04.062Z,100272.34
2019-01-12T12:35:29.828Z,100259.58
2019-01-12T12:37:55.583Z,100252.48
2019-01-12T12:41:03.043Z,100248.28
2019-01-12T12:43:28.790Z,100242.92
2019-01-12T12:45:54.554Z,100232.98
2019-01-12T12:48:20.339Z,100234.66
2019-01-12T12:50:46.107Z,100227.73
2019-01-12T12:56:19.188Z,100218.94
2019-01-12T12:58:44.950Z,100227.77
2019-01-12T13:01:10.835Z,100219.26
2019-01-12T13:03:36.602Z,100216.58
2019-01-12T13:08:56.181Z,100203.13
2019-01-12T13:11:21.955Z,100206.14
2019-01-12T13:13:47.814Z,100202.28
2019-01-12T13:16:13.685Z,100193.55
2019-01-12T13:18:39.433Z,100193.74
2019-01-12T13:21:05.215Z,100190.47
2019-01-12T13:23:30.987Z,100192.50
2019-01-12T13:25:56.770Z,100186.23
2019-01-12T13:28:22.527Z,100186.11
2019-01-12T13:30:48.303Z,100184.94
2019-01-12T13:33:14.058Z,100191.48
2019-01-12T13:35:39.860Z,100173.39
2019-01-12T13:38:05.615Z,100177.78
2019-01-12T13:40:31.362Z,100178.34
2019-01-12T13:42:57.144Z,100172.66
2019-01-12T13:45:23.108Z,100169.77
2019-01-12T13:47:48.878Z,100171.64
2019-01-12T13:50:56.316Z,100167.25
2019-01-12T13:53:22.095Z,100173.55
2019-01-12T13:55:47.848Z,100174.04
2019-01-12T13:58:13.613Z,100166.48
2019-01-12T14:00:39.387Z,100161.81
2019-01-12T14:03:05.502Z,100168.20
2019-01-12T14:05:31.253Z,100165.34
2019-01-12T14:08:38.884Z,100167.50
2019-01-12T14:11:04.709Z,100158.03
2019-01-12T14:13:30.649Z,100161.48
2019-01-12T14:15:56.450Z,100156.52
2019-01-12T14:18:22.693Z,100148.80
2019-01-12T14:23:57.091Z,100151.61
2019-01-12T14:26:22.849Z,100156.65
2019-01-12T14:28:48.643Z,100151.80
2019-01-12T14:31:14.438Z,100153.68
2019-01-12T14:33:40.173Z,100147.30
2019-01-12T14:36:05.927Z,100142.75
2019-01-12T14:38:31.697Z,100143.84
2019-01-12T14:40:57.448Z,100137.09
2019-01-12T14:43:23.214Z,100146.03
2019-01-12T14:45:48.969Z,100147.22
2019-01-12T14:48:14.738Z,100153.42
2019-01-12T14:50:40.519Z,100143.19
2019-01-12T14:53:06.289Z,100136.03
2019-01-12T14:55:32.042Z,100141.77
2019-01-12T14:58:02.219Z,100143.27
2019-01-12T15:01:07.156Z,100128.87
2019-01-12T15:03:32.945Z,100131.77
2019-01-12T15:06:18.558Z,100121.73
2019-01-12T15:08:44.336Z,100121.73
2019-01-12T15:11:10.094Z,100127.42
2019-01-12T15:13:35.874Z,100124.28
2019-01-12T15:16:01.621Z,100119.29
2019-01-12T15:18:27.387Z,100120.83
2019-01-12T15:20:53.145Z,100113.28
2019-01-12T15:23:18.909Z,100110.96
2019-01-12T15:25:44.685Z,100112.63
2019-01-12T15:28:10.446Z,100111.81
2019-01-12T15:30:36.203Z,100105.59
2019-01-12T15:33:01.976Z,100103.12
2019-01-12T15:36:09.416Z,100095.89
2019-01-12T15:38:35.189Z,100096.95
2019-01-12T15:41:00.930Z,100089.72
2019-01-12T15:43:26.709Z,100086.58
2019-01-12T15:45:52.450Z,100087.77
2019-01-12T15:48:18.217Z,100079.92
2019-01-12T15:50:43.980Z,100073.91
2019-01-12T15:53:09.741Z,100069.56
2019-01-12T15:55:35.501Z,100074.27
2019-01-12T15:58:01.265Z,100066.55
2019-01-12T16:00:27.123Z,100075.45
2019-01-12T16:02:52.891Z,100062.38
2019-01-12T16:05:18.860Z,100065.18
2019-01-12T16:07:44.608Z,100061.16
2019-01-12T16:13:24.634Z,100065.31
2019-01-12T16:15:50.381Z,100067.98
2019-01-12T16:18:16.190Z,100078.38
2019-01-12T16:20:41.952Z,100065.38
2019-01-12T16:23:07.708Z,100065.41
2019-01-12T16:25:33.474Z,100069.96
2019-01-12T16:27:59.230Z,100063.52
2019-01-12T16:30:25.023Z,100058.39
2019-01-12T16:32:50.771Z,100068.66
2019-01-12T16:35:58.217Z,100060.66
2019-01-12T16:38:23.976Z,100066.90
2019-01-12T16:40:49.764Z,100055.20
2019-01-12T16:43:15.520Z,100063.38
2019-01-12T16:45:41.279Z,100058.02
2019-01-12T16:48:07.037Z,100063.08
2019-01-12T16:50:32.833Z,100054.52
2019-01-12T16:52:58.597Z,100054.16
2019-01-12T16:55:24.463Z,100047.59
2019-01-12T16:57:50.222Z,100040.06
2019-01-12T17:03:29.930Z,100042.55
2019-01-12T17:05:55.707Z,100045.52
2019-01-12T17:08:21.467Z,100042.11
2019-01-12T17:10:47.241Z,100043.78
2019-01-12T17:13:12.991Z,100040.73
2019-01-12T17:15:38.757Z,100045.08
2019-01-12T17:18:04.529Z,100042.20
2019-01-12T17:20:30.308Z,100034.16
2019-01-12T17:26:23.140Z,100030.30
2019-01-12T17:28:48.892Z,100032.73
2019-01-12T17:31:14.670Z,100034.80
2019-01-12T17:33:40.414Z,100028.72
2019-01-12T17:36:06.198Z,100038.83
2019-01-12T17:38:31.958Z,100026.80
2019-01-12T17:40:57.833Z,100029.20
2019-01-12T17:43:23.582Z,100027.17
2019-01-12T17:45:49.361Z,100035.34
2019-01-12T17:48:15.124Z,100031.48
2019-01-12T17:50:40.900Z,100029.61
2019-01-12T17:53:06.668Z,100019.05
2019-01-12T17:55:32.431Z,100018.88
2019-01-12T17:57:58.185Z,100025.02
2019-01-12T18:01:05.643Z,100021.32
2019-01-12T18:03:31.388Z,100025.87
2019-01-12T18:05:57.162Z,100013.36
2019-01-12T18:08:22.907Z,100016.45
2019-01-12T18:10:48.677Z,100023.80
2019-01-12T18:13:14.424Z,100011.37
2019-01-12T18:15:40.190Z,100007.34
2019-01-12T18:18:05.951Z,100004.66
2019-01-12T18:20:31.738Z,100010.15
2019-01-12T18:22:57.605Z,100010.27
2019-01-12T18:25:23.383Z,100013.80
2019-01-12T18:27:49.145Z,100002.23
2019-01-12T18:30:56.592Z,100005.92
2019-01-12T18:33:22.348Z,100007.90
2019-01-12T18:35:48.152Z,100012.09
2019-01-12T18:38:13.903Z,100012.25
2019-01-12T18:40:39.671Z,100018.95
2019-01-12T18:43:05.431Z,100004.52
2019-01-12T18:45:31.184Z,100010.70
2019-01-12T18:47:56.937Z,100009.69
2019-01-12T18:51:04.373Z,100009.56
2019-01-12T18:53:30.129Z,100007.38
2019-01-12T18:55:55.894Z,100005.56
2019-01-12T18:58:21.649Z,100010.11
2019-01-12T19:00:47.416Z,100011.94
2019-01-12T19:03:13.201Z,100004.09
2019-01-12T19:05:38.983Z,100002.44
2019-01-12T19:08:04.746Z,100009.34
2019-01-12T19:10:30.506Z,99988.42
2019-01-12T19:12:56.280Z,99995.13
2019-01-12T19:16:03.728Z,99985.25
2019-01-12T19:18:29.489Z,99994.19
2019-01-12T19:20:55.281Z,99990.49
2019-01-12T19:23:21.027Z,99993.91
2019-01-12T19:25:46.771Z,99996.19
2019-01-12T19:28:12.541Z,99991.96
2019-01-12T19:30:38.289Z,99991.36
2019-01-12T19:33:04.062Z,99985.75
2019-01-12T19:35:29.824Z,99989.80
2019-01-12T19:37:55.600Z,99988.22
2019-01-12T19:41:03.046Z,99992.84
2019-01-12T19:43:28.814Z,99983.55
2019-01-12T19:45:54.566Z,99986.55
2019-01-12T19:48:20.347Z,99991.14
2019-01-12T19:50:46.119Z,99992.48
2019-01-12T19:53:11.893Z,99980.43
2019-01-12T19:55:37.640Z,99984.86
2019-01-12T19:58:03.408Z,99981.81
2019-01-12T20:00:29.156Z,99984.94
2019-01-12T20:02:54.936Z,99981.16
2019-01-12T20:05:20.791Z,99986.52
2019-01-12T20:07:46.571Z,99986.20
2019-01-12T20:10:54.000Z,99976.37
2019-01-12T20:13:19.766Z,99978.08
2019-01-12T20:15:45.538Z,99980.80
2019-01-12T20:18:11.317Z,99970.84
2019-01-12T20:20:37.095Z,99975.91
2019-01-12T20:23:02.964Z,99970.79
2019-01-12T20:28:35.916Z,99969.52
2019-01-12T20:31:43.385Z,99975.08
2019-01-12T20:38:16.023Z,99976.78
2019-01-12T20:41:23.475Z,99973.31
2019-01-12T20:44:30.941Z,99984.38
2019-01-12T20:47:38.392Z,99975.20
2019-01-12T20:50:45.824Z,99977.91
2019-01-12T20:53:53.263Z,99978.78
2019-01-12T20:57:00.692Z,99978.32
2019-01-12T21:00:26.125Z,99972.31
2019-01-12T21:03:31.669Z,99969.77
2019-01-12T21:06:37.191Z,99966.34
2019-01-12T21:09:42.739Z,99959.70
2019-01-12T21:12:48.261Z,99954.82
2019-01-12T21:15:55.694Z,99965.00
2019-01-12T21:18:21.461Z,99963.98
2019-01-12T21:20:47.223Z,99973.00
2019-01-12T21:23:12.998Z,99971.98
2019-01-12T21:25:38.749Z,99977.34
2019-01-12T21:28:04.507Z,99968.96
2019-01-12T21:30:30.281Z,99976.27
2019-01-12T21:32:56.047Z,99984.63
2019-01-12T21:35:21.827Z,99984.79
2019-01-12T21:37:47.581Z,99984.23
2019-01-12T21:40:13.344Z,99983.69
2019-01-12T21:42:39.098Z,99978.75
2019-01-12T21:45:46.545Z,99983.06
2019-01-12T21:48:12.296Z,99982.80
2019-01-12T21:50:38.056Z,99990.50
2019-01-12T21:53:03.837Z,99980.80
2019-01-12T21:55:31.036Z,99982.53
2019-01-12T21:57:57.281Z,99981.91
2019-01-12T22:00:23.045Z,99981.25
2019-01-12T22:02:48.798Z,99986.50
2019-01-12T22:05:14.660Z,99988.00
2019-01-12T22:07:40.408Z,99982.81
2019-01-12T22:10:47.875Z,99976.13
2019-01-12T22:13:13.643Z,99969.98
2019-01-12T22:15:39.404Z,99976.67
2019-01-12T22:18:05.166Z,99972.01
2019-01-12T22:20:30.942Z,99974.00
2019-01-12T22:23:16.593Z,99966.11
2019-01-12T22:25:42.360Z,99966.11
2019-01-12T22:28:08.137Z,99969.52
2019-01-12T22:30:34.311Z,99968.98
2019-01-12T22:33:01.566Z,99958.27
2019-01-12T22:35:27.338Z,99962.25
2019-01-12T22:38:00.476Z,99963.72
2019-01-12T22:40:26.248Z,99972.08
2019-01-12T22:42:52.001Z,99976.19
2019-01-12T22:45:17.757Z,99961.97
2019-01-12T22:47:43.544Z,99960.95
2019-01-12T22:50:50.980Z,99956.94
2019-01-12T22:53:16.725Z,99955.59
2019-01-12T22:55:42.473Z,99947.24
2019-01-12T22:58:08.244Z,99948.55
2019-01-12T23:01:15.696Z,99950.73
2019-01-12T23:04:23.119Z,99943.84
2019-01-12T23:06:48.884Z,99945.84
2019-01-12T23:09:14.659Z,99940.28
2019-01-12T23:11:40.448Z,99937.25
2019-01-12T23:14:06.218Z,99942.73
2019-01-12T23:16:32.016Z,99941.39
2019-01-12T23:18:57.762Z,99940.02
2019-01-12T23:21:23.548Z,99940.67
2019-01-12T23:23:49.306Z,99952.32
2019-01-12T23:29:44.230Z,99949.80
2019-01-12T23:32:10.216Z,99949.48
2019-01-12T23:34:35.972Z,99953.63
2019-01-12T23:37:01.831Z,99952.56
2019-01-12T23:39:27.595Z,99957.04
2019-01-12T23:41:53.373Z,99960.30
2019-01-12T23:44:19.147Z,99964.84
2019-01-12T23:46:44.923Z,99964.96
2019-01-12T23:52:05.025Z,99959.16
2019-01-12T23:54:30.784Z,99972.18
2019-01-12T23:56:56.574Z,99973.16
2019-01-12T23:59:22.339Z,99969.14
